createdAt,value
2018-09-14T00:01:24.703Z,102179.41
2018-09-14T00:03:53.746Z,102178.53
2018-09-14T00:06:22.809Z,102180.27
2018-09-14T00:08:54.036Z,102179.83
2018-09-14T00:11:23.090Z,102172.27
2018-09-14T00:13:52.226Z,102172.67
2018-09-14T00:16:21.306Z,102174.88
2018-09-14T00:18:50.514Z,102171.41
2018-09-14T00:21:19.603Z,102168.71
2018-09-14T00:23:48.682Z,102166.02
2018-09-14T00:26:17.765Z,102153.89
2018-09-14T00:28:47.296Z,102156.98
2018-09-14T00:31:16.400Z,102148.03
2018-09-14T00:33:46.154Z,102148.42
2018-09-14T00:36:15.220Z,102150.72
2018-09-14T00:38:44.583Z,102144.04
2018-09-14T00:41:13.722Z,102142.30
2018-09-14T00:43:42.785Z,102144.12
2018-09-14T00:46:11.903Z,102146.88
2018-09-14T00:48:40.959Z,102142.84
2018-09-14T00:51:10.106Z,102139.68
2018-09-14T00:53:39.163Z,102143.28
2018-09-14T00:56:08.267Z,102142.86
2018-09-14T00:58:37.315Z,102144.67
2018-09-14T01:01:06.477Z,102139.77
2018-09-14T01:03:35.536Z,102144.18
2018-09-14T01:06:04.660Z,102144.63
2018-09-14T01:08:33.881Z,102141.48
2018-09-14T01:11:02.952Z,102134.27
2018-09-14T01:13:32.037Z,102135.62
2018-09-14T01:16:01.129Z,102140.95
2018-09-14T01:18:30.251Z,102138.26
2018-09-14T01:20:59.606Z,102132.45
2018-09-14T01:23:28.762Z,102130.66
2018-09-14T01:25:57.883Z,102132.45
2018-09-14T01:28:26.964Z,102128.41
2018-09-14T01:30:56.029Z,102125.72
2018-09-14T01:33:25.100Z,102124.42
2018-09-14T01:35:59.399Z,102124.00
2018-09-14T01:38:28.484Z,102120.80
2018-09-14T01:40:57.656Z,102123.02
2018-09-14T01:43:26.696Z,102119.45
2018-09-14T01:45:55.818Z,102123.02
2018-09-14T01:48:24.908Z,102121.73
2018-09-14T01:50:54.188Z,102122.63
2018-09-14T01:53:23.376Z,102119.94
2018-09-14T01:55:52.634Z,102115.89
2018-09-14T01:58:21.698Z,102116.78
2018-09-14T02:00:51.052Z,102114.06
2018-09-14T02:03:20.230Z,102121.28
2018-09-14T02:05:49.536Z,102116.78
2018-09-14T02:08:18.626Z,102111.87
2018-09-14T02:10:47.706Z,102109.27
2018-09-14T02:13:16.807Z,102102.59
2018-09-14T02:15:45.897Z,102094.89
2018-09-14T02:18:14.979Z,102091.33
2018-09-14T02:20:44.087Z,102092.77
2018-09-14T02:23:13.155Z,102095.80
2018-09-14T02:25:42.371Z,102099.36
2018-09-14T02:28:11.708Z,102098.41
2018-09-14T02:30:40.790Z,102095.80
2018-09-14T02:33:09.898Z,102095.84
2018-09-14T02:35:38.976Z,102092.67
2018-09-14T02:38:08.096Z,102091.81
2018-09-14T02:40:37.158Z,102086.42
2018-09-14T02:43:06.251Z,102085.47
2018-09-14T02:45:35.584Z,102083.67
2018-09-14T02:48:05.025Z,102081.51
2018-09-14T02:50:34.121Z,102082.44
2018-09-14T02:53:03.255Z,102082.86
2018-09-14T02:55:32.595Z,102083.78
2018-09-14T02:58:01.761Z,102080.70
2018-09-14T03:00:31.166Z,102082.44
2018-09-14T03:03:05.635Z,102085.22
2018-09-14T03:05:40.066Z,102083.00
2018-09-14T03:08:09.251Z,102089.65
2018-09-14T03:10:38.317Z,102088.39
2018-09-14T03:13:07.380Z,102086.14
2018-09-14T03:15:36.515Z,102088.78
2018-09-14T03:18:05.810Z,102090.52
2018-09-14T03:20:34.874Z,102086.56
2018-09-14T03:23:04.004Z,102084.34
2018-09-14T03:25:33.101Z,102083.00
2018-09-14T03:28:02.175Z,102079.88
2018-09-14T03:30:31.271Z,102087.04
2018-09-14T03:33:00.352Z,102080.31
2018-09-14T03:35:29.485Z,102087.43
2018-09-14T03:37:58.555Z,102091.00
2018-09-14T03:40:27.671Z,102085.70
2018-09-14T03:42:56.735Z,102082.58
2018-09-14T03:45:25.869Z,102089.73
2018-09-14T03:47:55.065Z,102091.53
2018-09-14T03:50:24.120Z,102090.61
2018-09-14T03:52:53.258Z,102093.20
2018-09-14T03:55:22.355Z,102093.78
2018-09-14T03:57:51.386Z,102080.84
2018-09-14T04:00:20.447Z,102080.75
2018-09-14T04:02:49.543Z,102076.27
2018-09-14T04:05:18.609Z,102078.00
2018-09-14T04:07:47.778Z,102074.02
2018-09-14T04:10:17.016Z,102078.06
2018-09-14T04:12:46.075Z,102072.76
2018-09-14T04:15:15.108Z,102073.68
2018-09-14T04:17:44.218Z,102075.93
2018-09-14T04:20:13.313Z,102074.10
2018-09-14T04:22:42.416Z,102076.80
2018-09-14T04:25:11.495Z,102077.33
2018-09-14T04:27:40.792Z,102072.09
2018-09-14T04:30:10.117Z,102071.94
2018-09-14T04:32:39.179Z,102068.86
2018-09-14T04:35:08.259Z,102068.38
2018-09-14T04:37:37.393Z,102066.16
2018-09-14T04:40:06.519Z,102068.91
2018-09-14T04:42:35.675Z,102076.99
2018-09-14T04:45:04.896Z,102075.59
2018-09-14T04:47:33.939Z,102074.25
2018-09-14T04:50:03.013Z,102067.52
2018-09-14T04:52:32.344Z,102063.05
2018-09-14T04:55:01.476Z,102059.97
2018-09-14T04:57:30.662Z,102061.70
2018-09-14T04:59:59.793Z,102055.92
2018-09-14T05:02:28.967Z,102056.80
2018-09-14T05:04:58.057Z,102049.58
2018-09-14T05:07:27.265Z,102053.70
2018-09-14T05:09:56.435Z,102056.84
2018-09-14T05:12:25.545Z,102057.75
2018-09-14T05:14:54.642Z,102063.14
2018-09-14T05:17:23.728Z,102053.70
2018-09-14T05:19:52.844Z,102051.47
2018-09-14T05:22:21.939Z,102049.67
2018-09-14T05:24:51.079Z,102045.20
2018-09-14T05:27:20.328Z,102047.03
2018-09-14T05:29:49.536Z,102049.73
2018-09-14T05:32:18.528Z,102049.25
2018-09-14T05:34:47.568Z,102043.47
2018-09-14T05:37:16.644Z,102047.98
2018-09-14T05:39:45.798Z,102047.51
2018-09-14T05:42:14.896Z,102044.34
2018-09-14T05:44:43.986Z,102043.47
2018-09-14T05:47:13.108Z,102043.37
2018-09-14T05:49:42.184Z,102043.80
2018-09-14T05:52:11.294Z,102042.84
2018-09-14T05:54:40.351Z,102038.81
2018-09-14T05:57:09.324Z,102041.50
2018-09-14T05:59:38.399Z,102041.92
2018-09-14T06:02:07.477Z,102036.98
2018-09-14T06:04:36.539Z,102036.45
2018-09-14T06:07:05.770Z,102033.28
2018-09-14T06:09:34.855Z,102035.44
2018-09-14T06:12:03.908Z,102029.13
2018-09-14T06:14:33.597Z,102032.59
2018-09-14T06:17:02.724Z,102030.33
2018-09-14T06:19:32.104Z,102035.18
2018-09-14T06:22:01.177Z,102031.05
2018-09-14T06:24:30.342Z,102026.98
2018-09-14T06:26:59.420Z,102030.97
2018-09-14T06:29:28.510Z,102034.05
2018-09-14T06:31:57.584Z,102034.39
2018-09-14T06:34:26.662Z,102036.13
2018-09-14T06:36:55.839Z,102033.31
2018-09-14T06:39:25.124Z,102034.09
2018-09-14T06:41:54.247Z,102037.20
2018-09-14T06:44:23.336Z,102040.72
2018-09-14T06:46:52.403Z,102046.44
2018-09-14T06:49:21.569Z,102042.73
2018-09-14T06:51:56.255Z,102038.59
2018-09-14T06:54:25.331Z,102030.93
2018-09-14T06:56:54.380Z,102037.58
2018-09-14T06:59:23.541Z,102035.69
2018-09-14T07:01:52.632Z,102033.80
2018-09-14T07:04:21.631Z,102032.79
2018-09-14T07:06:52.164Z,102032.31
2018-09-14T07:09:21.249Z,102036.68
2018-09-14T07:11:50.300Z,102032.10
2018-09-14T07:14:19.435Z,102032.91
2018-09-14T07:16:48.618Z,102034.64
2018-09-14T07:19:17.720Z,102037.22
2018-09-14T07:21:46.870Z,102038.33
2018-09-14T07:24:16.177Z,102043.72
2018-09-14T07:26:45.539Z,102040.09
2018-09-14T07:29:14.915Z,102048.91
2018-09-14T07:31:44.163Z,102050.19
2018-09-14T07:34:13.387Z,102042.43
2018-09-14T07:36:42.506Z,102046.38
2018-09-14T07:39:12.397Z,102045.45
2018-09-14T07:41:41.800Z,102047.13
2018-09-14T07:44:10.962Z,102044.76
2018-09-14T07:46:40.036Z,102046.98
2018-09-14T07:49:09.119Z,102050.48
2018-09-14T07:51:38.218Z,102050.42
2018-09-14T07:54:07.336Z,102055.72
2018-09-14T07:56:36.404Z,102051.62
2018-09-14T07:59:05.633Z,102051.13
2018-09-14T08:01:34.688Z,102058.69
2018-09-14T08:04:03.794Z,102058.59
2018-09-14T08:06:32.912Z,102047.80
2018-09-14T08:09:02.118Z,102057.66
2018-09-14T08:11:31.302Z,102056.73
2018-09-14T08:14:00.372Z,102065.16
2018-09-14T08:16:29.439Z,102058.02
2018-09-14T08:18:58.504Z,102058.41
2018-09-14T08:21:27.638Z,102060.63
2018-09-14T08:23:56.851Z,102059.28
2018-09-14T08:26:25.999Z,102059.70
2018-09-14T08:28:55.068Z,102065.90
2018-09-14T08:31:24.499Z,102060.50
2018-09-14T08:33:53.827Z,102054.30
2018-09-14T08:36:23.204Z,102066.70
2018-09-14T08:38:52.299Z,102066.77
2018-09-14T08:41:21.385Z,102061.31
2018-09-14T08:43:50.466Z,102067.58
2018-09-14T08:46:19.525Z,102069.31
2018-09-14T08:48:48.861Z,102070.66
2018-09-14T08:51:17.976Z,102060.34
2018-09-14T08:53:47.073Z,102053.13
2018-09-14T08:56:16.173Z,102053.13
2018-09-14T08:58:45.368Z,102063.91
2018-09-14T09:01:14.468Z,102061.70
2018-09-14T09:03:43.543Z,102065.27
2018-09-14T09:06:13.004Z,102060.41
2018-09-14T09:08:42.167Z,102064.55
2018-09-14T09:11:11.233Z,102068.12
2018-09-14T09:13:40.321Z,102061.85
2018-09-14T09:16:09.402Z,102060.50
2018-09-14T09:18:38.530Z,102050.64
2018-09-14T09:21:07.656Z,102059.28
2018-09-14T09:23:36.924Z,102051.66
2018-09-14T09:26:06.039Z,102055.33
2018-09-14T09:28:35.038Z,102052.27
2018-09-14T09:31:04.220Z,102054.97
2018-09-14T09:33:33.309Z,102048.77
2018-09-14T09:36:02.527Z,102049.25
2018-09-14T09:38:31.839Z,102041.63
2018-09-14T09:41:01.002Z,102050.17
2018-09-14T09:43:30.335Z,102050.17
2018-09-14T09:45:59.540Z,102053.89
2018-09-14T09:48:28.612Z,102050.80
2018-09-14T09:50:57.808Z,102052.16
2018-09-14T09:53:27.014Z,102054.47
2018-09-14T09:55:56.048Z,102054.05
2018-09-14T09:58:25.307Z,102049.13
2018-09-14T10:00:59.726Z,102050.00
2018-09-14T10:03:34.382Z,102049.77
2018-09-14T10:06:08.800Z,102043.80
2018-09-14T10:08:37.946Z,102040.78
2018-09-14T10:11:07.130Z,102042.55
2018-09-14T10:13:36.240Z,102037.21
2018-09-14T10:16:05.444Z,102036.34
2018-09-14T10:18:34.766Z,102033.64
2018-09-14T10:21:03.898Z,102032.30
2018-09-14T10:23:33.265Z,102043.56
2018-09-14T10:26:02.304Z,102042.75
2018-09-14T10:28:31.423Z,102032.45
2018-09-14T10:31:00.638Z,102031.49
2018-09-14T10:33:29.728Z,102033.80
2018-09-14T10:35:58.822Z,102027.59
2018-09-14T10:38:28.090Z,102028.53
2018-09-14T10:40:57.285Z,102024.96
2018-09-14T10:43:26.264Z,102031.22
2018-09-14T10:45:55.370Z,102030.77
2018-09-14T10:48:24.455Z,102029.01
2018-09-14T10:50:53.612Z,102021.40
2018-09-14T10:53:22.742Z,102022.42
2018-09-14T10:55:51.920Z,102022.36
2018-09-14T10:58:21.013Z,102028.20
2018-09-14T11:00:50.369Z,102026.47
2018-09-14T11:03:19.590Z,102018.77
2018-09-14T11:05:48.713Z,102010.83
2018-09-14T11:08:17.767Z,102009.90
2018-09-14T11:10:46.789Z,102004.56
2018-09-14T11:13:15.883Z,102000.52
2018-09-14T11:15:44.995Z,101995.94
2018-09-14T11:18:14.082Z,102000.91
2018-09-14T11:20:43.216Z,101999.12
2018-09-14T11:23:12.466Z,101999.17
2018-09-14T11:25:41.583Z,101998.37
2018-09-14T11:28:10.880Z,102001.55
2018-09-14T11:30:40.189Z,101994.80
2018-09-14T11:33:09.277Z,101990.76
2018-09-14T11:35:38.378Z,101996.54
2018-09-14T11:38:07.488Z,101994.33
2018-09-14T11:40:36.764Z,101993.94
2018-09-14T11:43:05.869Z,101995.83
2018-09-14T11:45:34.960Z,101991.72
2018-09-14T11:48:04.083Z,101992.05
2018-09-14T11:50:33.150Z,101983.16
2018-09-14T11:53:02.266Z,101993.07
2018-09-14T11:55:31.351Z,101986.39
2018-09-14T11:58:00.486Z,101986.78
2018-09-14T12:00:29.928Z,101986.78
2018-09-14T12:02:59.052Z,101985.52
2018-09-14T12:05:28.247Z,101987.68
2018-09-14T12:07:57.342Z,101998.91
2018-09-14T12:10:26.436Z,101988.12
2018-09-14T12:12:55.636Z,101988.45
2018-09-14T12:15:24.679Z,101987.68
2018-09-14T12:17:53.744Z,101992.74
2018-09-14T12:20:23.024Z,101985.10
2018-09-14T12:22:52.102Z,101986.45
2018-09-14T12:25:21.187Z,101979.27
2018-09-14T12:27:50.262Z,101977.91
2018-09-14T12:30:19.512Z,101984.98
2018-09-14T12:32:48.709Z,101981.00
2018-09-14T12:35:17.789Z,101983.63
2018-09-14T12:37:46.869Z,101978.78
2018-09-14T12:40:15.979Z,101978.36
2018-09-14T12:42:45.072Z,101978.30
2018-09-14T12:45:14.191Z,101978.78
2018-09-14T12:47:43.303Z,101973.93
2018-09-14T12:50:12.463Z,101980.61
2018-09-14T12:52:41.542Z,101977.91
2018-09-14T12:55:10.676Z,101973.39
2018-09-14T12:57:39.668Z,101978.78
2018-09-14T13:00:08.899Z,101977.44
2018-09-14T13:02:38.582Z,101974.73
2018-09-14T13:05:07.815Z,101970.22
2018-09-14T13:07:36.951Z,101979.11
2018-09-14T13:10:06.213Z,101977.98
2018-09-14T13:12:44.705Z,101978.84
2018-09-14T13:15:13.887Z,101974.32
2018-09-14T13:17:42.959Z,101977.44
2018-09-14T13:20:12.079Z,101973.39
2018-09-14T13:22:41.211Z,101975.55
2018-09-14T13:25:10.555Z,101976.09
2018-09-14T13:27:39.552Z,101967.12
2018-09-14T13:30:08.611Z,101971.72
2018-09-14T13:32:38.537Z,101972.59
2018-09-14T13:35:07.677Z,101967.58
2018-09-14T13:37:38.395Z,101969.83
2018-09-14T13:40:07.527Z,101967.58
2018-09-14T13:42:36.759Z,101966.23
2018-09-14T13:45:05.961Z,101966.23
2018-09-14T13:47:35.089Z,101965.04
2018-09-14T13:50:04.087Z,101960.52
2018-09-14T13:52:33.203Z,101959.97
2018-09-14T13:55:02.290Z,101960.84
2018-09-14T13:57:31.344Z,101962.28
2018-09-14T14:00:00.709Z,101965.78
2018-09-14T14:02:29.788Z,101955.06
2018-09-14T14:04:58.890Z,101961.32
2018-09-14T14:07:28.070Z,101963.15
2018-09-14T14:09:57.160Z,101961.80
2018-09-14T14:12:26.404Z,101949.19
2018-09-14T14:14:55.578Z,101957.70
2018-09-14T14:17:24.819Z,101958.14
2018-09-14T14:19:54.047Z,101952.91
2018-09-14T14:22:23.151Z,101963.15
2018-09-14T14:24:52.203Z,101963.15
2018-09-14T14:27:21.289Z,101958.69
2018-09-14T14:29:50.465Z,101959.11
2018-09-14T14:32:19.546Z,101955.06
2018-09-14T14:34:48.715Z,101956.09
2018-09-14T14:37:17.858Z,101957.43
2018-09-14T14:39:47.035Z,101962.73
2018-09-14T14:42:17.275Z,101955.98
2018-09-14T14:44:46.355Z,101951.17
2018-09-14T14:47:15.548Z,101956.14
2018-09-14T14:49:44.676Z,101958.78
2018-09-14T14:52:13.941Z,101956.63
2018-09-14T14:54:43.102Z,101948.54
2018-09-14T14:57:12.367Z,101960.19
2018-09-14T14:59:41.536Z,101949.41
2018-09-14T15:02:10.637Z,101956.14
2018-09-14T15:04:39.724Z,101958.84
2018-09-14T15:07:09.031Z,101956.14
2018-09-14T15:09:38.251Z,101952.10
2018-09-14T15:12:07.365Z,101948.06
2018-09-14T15:14:36.533Z,101950.36
2018-09-14T15:17:05.729Z,101954.31
2018-09-14T15:19:34.802Z,101948.54
2018-09-14T15:22:03.957Z,101947.58
2018-09-14T15:24:33.276Z,101939.05
2018-09-14T15:27:02.626Z,101944.50
2018-09-14T15:29:31.722Z,101943.15
2018-09-14T15:32:00.784Z,101943.53
2018-09-14T15:34:29.865Z,101941.31
2018-09-14T15:36:58.983Z,101944.88
2018-09-14T15:39:28.075Z,101939.91
2018-09-14T15:41:57.163Z,101943.53
2018-09-14T15:44:26.571Z,101945.30
2018-09-14T15:46:55.649Z,101950.16
2018-09-14T15:49:24.730Z,101954.25
2018-09-14T15:51:53.980Z,101942.13
2018-09-14T15:54:23.043Z,101945.63
2018-09-14T15:56:52.106Z,101940.30
2018-09-14T15:59:21.171Z,101941.64
2018-09-14T16:01:50.265Z,101944.34
2018-09-14T16:04:19.326Z,101959.26
2018-09-14T16:06:48.602Z,101946.70
2018-09-14T16:09:17.721Z,101951.72
2018-09-14T16:11:46.828Z,101953.54
2018-09-14T16:14:15.959Z,101950.36
2018-09-14T16:16:45.024Z,101945.84
2018-09-14T16:19:14.109Z,101944.17
2018-09-14T16:21:43.198Z,101945.91
2018-09-14T16:24:12.350Z,101943.20
2018-09-14T16:26:41.576Z,101947.19
2018-09-14T16:29:10.678Z,101948.16
2018-09-14T16:31:39.736Z,101949.50
2018-09-14T16:34:09.024Z,101933.39
2018-09-14T16:36:38.147Z,101954.89
2018-09-14T16:39:09.056Z,101959.37
2018-09-14T16:41:38.256Z,101954.47
2018-09-14T16:44:07.454Z,101950.84
2018-09-14T16:46:36.787Z,101954.80
2018-09-14T16:49:06.227Z,101952.20
2018-09-14T16:51:35.360Z,101960.19
2018-09-14T16:54:04.647Z,101955.76
2018-09-14T16:56:33.711Z,101955.28
2018-09-14T16:59:02.843Z,101957.11
2018-09-14T17:01:31.938Z,101955.34
2018-09-14T17:04:01.068Z,101957.11
2018-09-14T17:06:30.136Z,101951.72
2018-09-14T17:08:59.392Z,101961.15
2018-09-14T17:11:28.651Z,101959.86
2018-09-14T17:13:57.739Z,101956.69
2018-09-14T17:16:26.819Z,101953.06
2018-09-14T17:18:55.879Z,101954.47
2018-09-14T17:21:25.052Z,101955.91
2018-09-14T17:23:54.309Z,101960.98
2018-09-14T17:26:23.530Z,101958.28
2018-09-14T17:28:52.595Z,101960.98
2018-09-14T17:31:21.666Z,101965.08
2018-09-14T17:33:50.752Z,101966.91
2018-09-14T17:36:20.119Z,101974.52
2018-09-14T17:38:49.301Z,101966.48
2018-09-14T17:41:18.499Z,101966.48
2018-09-14T17:43:47.672Z,101954.45
2018-09-14T17:46:16.822Z,101950.41
2018-09-14T17:48:45.983Z,101949.98
2018-09-14T17:51:15.207Z,101954.98
2018-09-14T17:53:44.311Z,101952.30
2018-09-14T17:56:13.479Z,101953.64
2018-09-14T17:58:42.592Z,101951.43
2018-09-14T18:01:11.728Z,101950.95
2018-09-14T18:03:40.862Z,101962.27
2018-09-14T18:06:10.008Z,101965.83
2018-09-14T18:08:39.107Z,101967.17
2018-09-14T18:11:08.144Z,101955.47
2018-09-14T18:13:37.261Z,101960.98
2018-09-14T18:16:06.467Z,101966.84
2018-09-14T18:18:35.552Z,101962.33
2018-09-14T18:21:04.606Z,101956.55
2018-09-14T18:23:33.739Z,101952.45
2018-09-14T18:26:02.960Z,101961.55
2018-09-14T18:28:31.984Z,101959.63
2018-09-14T18:31:01.068Z,101958.28
2018-09-14T18:33:30.223Z,101964.16
2018-09-14T18:35:59.331Z,101970.89
2018-09-14T18:38:28.444Z,101967.00
2018-09-14T18:40:57.625Z,101962.95
2018-09-14T18:43:26.695Z,101960.27
2018-09-14T18:45:55.790Z,101969.22
2018-09-14T18:48:24.892Z,101960.74
2018-09-14T18:50:54.185Z,101967.06
2018-09-14T18:53:23.328Z,101971.52
2018-09-14T18:55:52.522Z,101972.93
2018-09-14T18:58:21.772Z,101966.61
2018-09-14T19:00:51.042Z,101959.88
2018-09-14T19:03:20.298Z,101963.02
2018-09-14T19:05:49.401Z,101964.78
2018-09-14T19:08:18.480Z,101964.45
2018-09-14T19:10:47.718Z,101961.34
2018-09-14T19:13:16.794Z,101964.45
2018-09-14T19:15:46.048Z,101974.42
2018-09-14T19:18:15.140Z,101964.99
2018-09-14T19:20:44.287Z,101974.81
2018-09-14T19:23:13.393Z,101981.10
2018-09-14T19:25:42.452Z,101971.73
2018-09-14T19:28:11.512Z,101968.55
2018-09-14T19:30:40.667Z,101969.91
2018-09-14T19:33:09.886Z,101977.92
2018-09-14T19:35:38.947Z,101975.29
2018-09-14T19:38:08.006Z,101980.68
2018-09-14T19:40:37.092Z,101975.77
2018-09-14T19:43:06.250Z,101971.34
2018-09-14T19:45:35.340Z,101978.86
2018-09-14T19:48:04.429Z,101979.33
2018-09-14T19:50:33.551Z,101975.83
2018-09-14T19:53:02.639Z,101978.52
2018-09-14T19:55:32.033Z,101974.48
2018-09-14T19:58:01.179Z,101979.88
2018-09-14T20:00:30.333Z,101973.61
2018-09-14T20:02:59.615Z,101965.53
2018-09-14T20:05:28.713Z,101981.70
2018-09-14T20:07:58.246Z,101974.58
2018-09-14T20:10:27.315Z,101971.94
2018-09-14T20:12:56.412Z,101970.59
2018-09-14T20:15:25.533Z,101971.88
2018-09-14T20:17:54.653Z,101970.11
2018-09-14T20:20:23.920Z,101967.42
2018-09-14T20:22:53.008Z,101967.36
2018-09-14T20:25:22.121Z,101962.98
2018-09-14T20:27:51.217Z,101967.51
2018-09-14T20:30:21.239Z,101971.94
2018-09-14T20:32:50.433Z,101972.36
2018-09-14T20:35:19.503Z,101975.11
2018-09-14T20:37:48.629Z,101975.98
2018-09-14T20:40:17.808Z,101983.20
2018-09-14T20:42:47.210Z,101977.80
2018-09-14T20:45:16.350Z,101983.20
2018-09-14T20:47:45.509Z,101978.28
2018-09-14T20:50:14.611Z,101980.98
2018-09-14T20:52:43.970Z,101978.82
2018-09-14T20:55:13.107Z,101980.17
2018-09-14T20:57:43.135Z,101986.84
2018-09-14T21:00:12.219Z,101985.08
2018-09-14T21:02:41.409Z,101982.39
2018-09-14T21:05:10.565Z,101977.86
2018-09-14T21:07:39.618Z,101983.25
2018-09-14T21:10:09.167Z,101981.91
2018-09-14T21:12:38.306Z,101980.17
2018-09-14T21:15:07.420Z,101983.34
2018-09-14T21:17:36.475Z,101979.78
2018-09-14T21:20:05.558Z,101985.61
2018-09-14T21:22:34.631Z,101983.34
2018-09-14T21:25:03.900Z,101984.21
2018-09-14T21:27:32.962Z,101981.04
2018-09-14T21:30:02.079Z,101989.13
2018-09-14T21:32:31.195Z,101988.31
2018-09-14T21:35:00.257Z,101986.96
2018-09-14T21:37:29.326Z,101983.83
2018-09-14T21:39:58.407Z,101990.56
2018-09-14T21:42:27.586Z,101986.52
2018-09-14T21:44:56.648Z,101976.19
2018-09-14T21:47:25.729Z,101981.12
2018-09-14T21:49:54.854Z,101982.92
2018-09-14T21:52:23.934Z,101975.32
2018-09-14T21:54:53.056Z,101972.63
2018-09-14T21:57:22.260Z,101981.63
2018-09-14T21:59:51.668Z,101978.49
2018-09-14T22:02:20.832Z,101985.23
2018-09-14T22:04:49.950Z,101984.75
2018-09-14T22:07:19.014Z,101984.75
2018-09-14T22:09:48.115Z,101982.47
2018-09-14T22:12:17.241Z,101987.38
2018-09-14T22:14:46.334Z,101984.69
2018-09-14T22:17:15.366Z,101985.61
2018-09-14T22:19:44.426Z,101983.88
2018-09-14T22:22:13.503Z,101987.44
2018-09-14T22:24:42.608Z,101985.23
2018-09-14T22:27:11.710Z,101984.33
2018-09-14T22:29:40.795Z,101984.33
2018-09-14T22:32:09.873Z,101990.16
2018-09-14T22:34:39.104Z,101992.86
2018-09-14T22:37:08.179Z,101989.72
2018-09-14T22:39:37.295Z,101992.86
2018-09-14T22:42:06.387Z,101996.89
2018-09-14T22:44:35.481Z,101992.86
2018-09-14T22:47:04.555Z,101991.51
2018-09-14T22:49:33.675Z,101991.59
2018-09-14T22:52:02.750Z,101994.68
2018-09-14T22:54:31.857Z,101984.39
2018-09-14T22:57:00.953Z,101992.95
2018-09-14T22:59:30.065Z,101997.80
2018-09-14T23:01:59.227Z,101998.72
2018-09-14T23:04:28.324Z,101999.20
2018-09-14T23:06:57.438Z,101998.33
2018-09-14T23:09:26.622Z,102004.65
2018-09-14T23:11:55.832Z,102007.64
2018-09-14T23:14:24.913Z,102008.15
2018-09-14T23:16:54.031Z,102009.98
2018-09-14T23:19:23.106Z,102007.28
2018-09-14T23:21:52.224Z,102010.03
2018-09-14T23:24:21.298Z,102014.55
2018-09-14T23:26:50.422Z,102017.19
2018-09-14T23:29:19.492Z,102018.54
2018-09-14T23:31:48.550Z,102013.69
2018-09-14T23:34:17.618Z,102018.12
2018-09-14T23:36:46.672Z,102020.36
2018-09-14T23:39:15.761Z,102017.19
2018-09-14T23:41:44.878Z,102017.67
2018-09-14T23:44:13.966Z,102009.59
2018-09-14T23:46:43.070Z,102012.28
2018-09-14T23:49:12.164Z,102010.99
2018-09-14T23:51:41.253Z,102016.77
2018-09-14T23:54:10.785Z,102009.59
2018-09-14T23:56:39.845Z,102012.73
2018-09-14T23:59:08.980Z,102018.59
